首页
METAR-TAF:

METAR-TAF

机场 :

多森, 阿拉巴马州, 美国

纬度: 31-19-17N, 经度: 085-26-59W, 海拔: 122米

当前天气观测

该预报发布于49分钟前的18:53 UTC
风速5节,风向西转西北
温度 19°C
湿度 60%
气压 1015 hPa
能見度: 16.1公里
天空无云

METAR: KDHN 171853Z 29005KT 10SM CLR 19/11 A2997 RMK AO2 SLP147 T01940106

时间: 13:42 (19:42 UTC)

预报

该预报发布于1小时和58分钟前的17:44 UTC
预报有效从17日的 18点(UTC)到 18日的 18点(UTC)
风速6节,风向东北
能見度: 10公里
天空无云
从 18日的 0700点(UTC)
风速4节,风向西转西北
能見度: 9.7公里
阴天层高于2000英尺
轻雾
从 18日的 1500点(UTC)
风速8节,风向西转西北
能見度: 10公里
散云层高于3500英尺

TAF: KDHN 171744Z 1718/1818 04006KT P6SM SKC FM180700 29004KT 6SM BR OVC020 FM181500 29008KT P6SM SCT035

超过4000个机场的气象观测和天气预报(METAR&TAF报告)。

可查询的气象台以黄色和红色小点在地图上表示。

将鼠标移到小点上方,可查看气象台名称。

然后点击查看天气观测和预报。

如需切换地图:点击带黑十字的绿色按钮放大地图;点击带横线的绿色按钮缩小地图;或者点击绿色箭头查看邻近地区的地图。


METAR-TAF: